Beaverlick, Kentucky
Current Conditions -  °F | °C
As of 7:52 AM on Wednesday 22 Oct 2014 (Local Time) from KCVG Reporting Station
Scattered Clouds Scattered Clouds  
Wind Chill: 38°   Ceiling: Unl
Heat Index: 43°   Visibility: 10mi
Dew Point: 37°   Wind: 8mph
Humidity: 80%   Direction: 350°N
Pressure: 30.26"   Gusts: NA
Location:  38.8847°N, 84.6211°W
Report Text: KCVG 221152Z 35007KT 10SM SCT016 06/03 A3026 RMK AO2 SLP245 SCT V BKN T00610028 10089 20061 51019
Loading
Personal Weather Stations






























Interactive Weather Map
Tropical Storm Tracking
New forecast layout! Learn more

10-Day Weather Forecast

Advertisements
Track Severe Weather on mobile